createdAt,value
2019-02-08T00:03:23.570Z,21.90
2019-02-08T00:08:26.012Z,23.20
2019-02-08T00:13:28.459Z,22.80
2019-02-08T00:18:30.926Z,22.73
2019-02-08T00:23:33.445Z,24.90
2019-02-08T00:28:35.877Z,22.13
2019-02-08T00:33:38.321Z,25.40
2019-02-08T00:38:40.765Z,21.20
2019-02-08T00:43:43.200Z,22.30
2019-02-08T00:48:45.639Z,20.67
2019-02-08T00:53:48.092Z,21.47
2019-02-08T00:58:50.526Z,18.90
2019-02-08T01:03:52.968Z,20.17
2019-02-08T01:08:57.147Z,20.97
2019-02-08T01:13:57.877Z,20.07
2019-02-08T01:19:00.330Z,20.93
2019-02-08T01:24:02.773Z,21.17
2019-02-08T01:29:05.235Z,22.37
2019-02-08T01:34:07.690Z,22.13
2019-02-08T01:39:10.140Z,20.80
2019-02-08T01:44:12.591Z,21.03
2019-02-08T01:49:15.041Z,18.20
2019-02-08T01:54:17.494Z,19.20
2019-02-08T01:59:19.937Z,20.93
2019-02-08T02:04:23.044Z,21.23
2019-02-08T02:09:25.504Z,21.93
2019-02-08T02:14:27.943Z,20.07
2019-02-08T02:19:30.382Z,21.67
2019-02-08T02:24:33.093Z,20.73
2019-02-08T02:29:35.529Z,20.30
2019-02-08T02:34:38.007Z,20.63
2019-02-08T02:39:40.450Z,20.70
2019-02-08T02:44:43.026Z,19.57
2019-02-08T02:49:45.468Z,18.93
2019-02-08T02:54:47.920Z,20.30
2019-02-08T02:59:50.365Z,19.63
2019-02-08T03:04:52.803Z,17.67
2019-02-08T03:09:55.253Z,17.17
2019-02-08T03:14:57.695Z,15.27
2019-02-08T03:20:00.271Z,17.87
2019-02-08T03:25:02.584Z,15.97
2019-02-08T03:30:08.021Z,17.10
2019-02-08T03:35:10.510Z,16.27
2019-02-08T03:40:12.903Z,15.20
2019-02-08T03:45:15.410Z,15.37
2019-02-08T03:50:23.722Z,14.40
2019-02-08T03:55:26.179Z,13.17
2019-02-08T04:00:31.607Z,14.23
2019-02-08T04:05:34.049Z,13.07
2019-02-08T04:10:36.489Z,13.43
2019-02-08T04:15:38.928Z,13.47
2019-02-08T04:20:41.382Z,14.43
2019-02-08T04:25:43.847Z,13.23
2019-02-08T04:30:46.305Z,12.63
2019-02-08T04:35:48.755Z,11.17
2019-02-08T04:40:51.198Z,10.20
2019-02-08T04:45:53.639Z,8.23
2019-02-08T04:50:56.080Z,9.17
2019-02-08T04:55:58.513Z,8.57
2019-02-08T05:01:00.951Z,9.27
2019-02-08T05:06:03.385Z,8.70
2019-02-08T05:11:05.834Z,8.77
2019-02-08T05:16:08.288Z,13.87
2019-02-08T05:21:10.752Z,14.53
2019-02-08T05:26:13.199Z,13.73
2019-02-08T05:31:15.628Z,8.80
2019-02-08T05:36:18.124Z,9.73
2019-02-08T05:41:20.522Z,8.40
2019-02-08T05:46:22.964Z,8.77
2019-02-08T05:51:25.413Z,8.87
2019-02-08T05:56:27.853Z,7.40
2019-02-08T06:01:30.294Z,9.00
2019-02-08T06:06:32.729Z,8.97
2019-02-08T06:11:35.192Z,9.00
2019-02-08T06:16:37.681Z,10.53
2019-02-08T06:21:40.116Z,9.63
2019-02-08T06:26:42.560Z,9.10
2019-02-08T06:31:45.024Z,7.00
2019-02-08T06:36:47.479Z,7.87
2019-02-08T06:41:49.918Z,6.83
2019-02-08T06:46:52.359Z,5.87
2019-02-08T06:51:54.814Z,6.90
2019-02-08T06:56:57.252Z,10.97
2019-02-08T07:02:02.643Z,11.60
2019-02-08T07:07:05.079Z,9.07
2019-02-08T07:12:13.182Z,9.90
2019-02-08T07:17:15.648Z,8.60
2019-02-08T07:22:20.653Z,8.80
2019-02-08T07:27:32.125Z,6.47
2019-02-08T07:32:40.432Z,7.97
2019-02-08T07:37:42.868Z,6.87
2019-02-08T07:42:45.321Z,5.60
2019-02-08T07:47:50.741Z,5.90
2019-02-08T07:53:02.383Z,6.50
2019-02-08T07:58:23.176Z,5.90
2019-02-08T08:03:34.522Z,5.63
2019-02-08T08:08:45.780Z,4.63
2019-02-08T08:13:48.239Z,4.97
2019-02-08T08:18:50.674Z,5.03
2019-02-08T08:23:53.142Z,4.27
2019-02-08T08:29:14.002Z,3.80
2019-02-08T08:34:28.455Z,3.70
2019-02-08T08:39:45.878Z,28.30
2019-02-08T08:44:57.413Z,5.83
2019-02-08T08:50:30.752Z,3.93
2019-02-08T08:55:42.546Z,5.37
2019-02-08T09:01:05.450Z,5.00
2019-02-08T09:06:16.563Z,4.50
2019-02-08T09:11:46.313Z,4.13
2019-02-08T09:16:51.845Z,3.80
2019-02-08T09:22:09.352Z,3.20
2019-02-08T09:27:20.813Z,3.30
2019-02-08T09:32:47.462Z,3.20
2019-02-08T09:37:52.579Z,6.50
2019-02-08T09:43:22.457Z,4.20
2019-02-08T09:48:45.954Z,3.53
2019-02-08T09:54:19.334Z,3.53
2019-02-08T09:59:52.150Z,8.80
2019-02-08T10:05:03.223Z,3.70
2019-02-08T10:10:14.638Z,3.17
2019-02-08T10:15:32.439Z,3.50
2019-02-08T10:20:54.169Z,3.63
2019-02-08T10:26:14.006Z,3.30
2019-02-08T10:31:44.396Z,3.27
2019-02-08T10:37:01.811Z,3.20
2019-02-08T10:42:28.313Z,3.30
2019-02-08T10:48:01.741Z,5.90
2019-02-08T10:53:25.862Z,19.40
2019-02-08T10:58:33.987Z,3.10
2019-02-08T11:03:55.308Z,2.40
2019-02-08T11:09:16.105Z,2.50
2019-02-08T11:14:37.217Z,2.90
2019-02-08T11:19:39.154Z,4.07
2019-02-08T11:24:41.610Z,4.70
2019-02-08T11:29:44.271Z,3.17
2019-02-08T11:34:46.739Z,9.27
2019-02-08T11:39:49.202Z,3.70
2019-02-08T11:44:51.688Z,2.83
2019-02-08T11:49:54.202Z,24.03
2019-02-08T11:54:56.665Z,3.80
2019-02-08T11:59:59.117Z,3.57
2019-02-08T12:05:01.574Z,3.93
2019-02-08T12:10:04.015Z,3.10
2019-02-08T12:15:06.465Z,3.00
2019-02-08T12:20:08.920Z,4.63
2019-02-08T12:25:11.382Z,3.57
2019-02-08T12:30:16.776Z,2.40
2019-02-08T12:35:19.370Z,2.90
2019-02-08T12:40:21.830Z,2.33
2019-02-08T12:45:24.299Z,2.37
2019-02-08T12:50:26.817Z,2.83
2019-02-08T12:55:29.258Z,2.10
2019-02-08T13:00:31.726Z,6.10
2019-02-08T13:05:34.185Z,2.47
2019-02-08T13:10:36.645Z,1.73
2019-02-08T13:15:39.125Z,2.10
2019-02-08T13:20:41.614Z,3.83
2019-02-08T13:25:44.477Z,2.77
2019-02-08T13:30:46.921Z,3.03
2019-02-08T13:35:49.375Z,1.80
2019-02-08T13:40:51.828Z,2.20
2019-02-08T13:45:54.305Z,2.40
2019-02-08T13:50:56.766Z,5.60
2019-02-08T13:55:59.238Z,3.43
2019-02-08T14:01:01.716Z,4.17
2019-02-08T14:06:04.182Z,3.70
2019-02-08T14:11:06.635Z,2.50
2019-02-08T14:16:09.083Z,2.53
2019-02-08T14:21:11.562Z,4.10
2019-02-08T14:26:14.028Z,3.13
2019-02-08T14:31:16.534Z,1.73
2019-02-08T14:36:19.011Z,8.83
2019-02-08T14:41:21.444Z,4.93
2019-02-08T14:46:23.910Z,2.20
2019-02-08T14:51:26.365Z,2.40
2019-02-08T14:56:28.827Z,6.27
2019-02-08T15:01:31.267Z,13.80
2019-02-08T15:06:33.781Z,3.30
2019-02-08T15:11:36.194Z,2.40
2019-02-08T15:16:38.646Z,2.97
2019-02-08T15:21:41.432Z,3.73
2019-02-08T15:26:43.901Z,3.30
2019-02-08T15:31:46.352Z,5.87
2019-02-08T15:36:49.304Z,5.57
2019-02-08T15:41:51.242Z,4.13
2019-02-08T15:46:53.698Z,12.70
2019-02-08T15:51:56.143Z,13.73
2019-02-08T15:56:58.603Z,9.87
2019-02-08T16:02:01.084Z,11.80
2019-02-08T16:07:03.540Z,16.53
2019-02-08T16:12:05.999Z,7.47
2019-02-08T16:17:08.465Z,4.87
2019-02-08T16:22:10.911Z,4.87
2019-02-08T16:27:13.360Z,8.43
2019-02-08T16:32:16.353Z,7.73
2019-02-08T16:37:18.926Z,9.17
2019-02-08T16:42:21.375Z,5.20
2019-02-08T16:47:23.819Z,4.90
2019-02-08T16:52:26.288Z,4.87
2019-02-08T16:57:28.708Z,6.63
2019-02-08T17:02:31.175Z,7.33
2019-02-08T17:07:33.615Z,8.23
2019-02-08T17:12:36.092Z,9.83
2019-02-08T17:17:38.541Z,8.43
2019-02-08T17:22:40.983Z,7.57
2019-02-08T17:27:43.441Z,6.70
2019-02-08T17:32:45.885Z,6.23
2019-02-08T17:37:48.328Z,5.20
2019-02-08T17:42:50.806Z,4.67
2019-02-08T17:47:53.293Z,4.83
2019-02-08T17:52:56.491Z,4.50
2019-02-08T17:58:03.501Z,25.33
2019-02-08T18:03:01.421Z,18.03
2019-02-08T18:08:03.884Z,11.87
2019-02-08T18:13:06.338Z,8.17
2019-02-08T18:18:11.416Z,5.93
2019-02-08T18:23:14.018Z,5.57
2019-02-08T18:28:16.710Z,9.63
2019-02-08T18:33:18.914Z,7.43
2019-02-08T18:38:21.352Z,11.47
2019-02-08T18:43:23.786Z,13.40
2019-02-08T18:48:26.252Z,13.33
2019-02-08T18:53:28.699Z,12.07
2019-02-08T18:58:31.191Z,10.57
2019-02-08T19:03:33.673Z,10.33
2019-02-08T19:08:36.192Z,10.50
2019-02-08T19:13:38.661Z,9.70
2019-02-08T19:18:41.131Z,8.67
2019-02-08T19:23:43.587Z,9.40
2019-02-08T19:28:46.078Z,9.37
2019-02-08T19:33:48.518Z,13.10
2019-02-08T19:38:50.989Z,11.17
2019-02-08T19:43:53.448Z,9.40
2019-02-08T19:48:55.974Z,8.20
2019-02-08T19:53:58.429Z,9.60
2019-02-08T19:59:00.880Z,10.23
2019-02-08T20:04:03.352Z,10.03
2019-02-08T20:09:05.808Z,13.93
2019-02-08T20:14:08.284Z,16.10
2019-02-08T20:19:10.731Z,13.83
2019-02-08T20:24:13.198Z,11.03
2019-02-08T20:29:15.636Z,11.70
2019-02-08T20:34:18.087Z,10.50
2019-02-08T20:39:20.560Z,9.77
2019-02-08T20:44:23.049Z,9.90
2019-02-08T20:49:25.506Z,7.90
2019-02-08T20:54:27.949Z,9.43
2019-02-08T20:59:30.691Z,8.00
2019-02-08T21:04:33.161Z,8.10
2019-02-08T21:09:35.673Z,6.10
2019-02-08T21:14:38.129Z,5.33
2019-02-08T21:19:40.587Z,4.97
2019-02-08T21:24:43.425Z,4.60
2019-02-08T21:29:45.635Z,5.23
2019-02-08T21:34:48.093Z,4.63
2019-02-08T21:39:50.566Z,4.90
2019-02-08T21:44:53.064Z,6.10
2019-02-08T21:49:55.699Z,7.07
2019-02-08T21:54:58.189Z,5.87
2019-02-08T22:00:00.651Z,5.70
2019-02-08T22:05:03.117Z,7.27
2019-02-08T22:10:05.575Z,5.33
2019-02-08T22:15:08.045Z,6.50
2019-02-08T22:20:16.110Z,4.63
2019-02-08T22:25:18.606Z,5.33
2019-02-08T22:30:23.970Z,6.80
2019-02-08T22:35:26.413Z,4.73
2019-02-08T22:40:28.858Z,5.37
2019-02-08T22:45:31.298Z,4.93
2019-02-08T22:50:33.738Z,4.27
2019-02-08T22:55:36.180Z,5.27
2019-02-08T23:00:41.422Z,4.50
2019-02-08T23:05:45.516Z,4.80
2019-02-08T23:10:46.290Z,5.17
2019-02-08T23:15:48.748Z,4.60
2019-02-08T23:20:51.192Z,4.57
2019-02-08T23:25:53.638Z,4.07
2019-02-08T23:30:56.110Z,5.30
2019-02-08T23:35:58.532Z,5.20
2019-02-08T23:41:00.970Z,4.47
2019-02-08T23:46:03.417Z,4.87
2019-02-08T23:51:05.852Z,4.47
2019-02-08T23:56:08.322Z,4.53
